sensor_id;sensor_type;location;lat;lon;timestamp;P1;durP1;ratioP1;P2;durP2;ratioP2
51174;SDS011;37240;50.104;20.010;2023-04-03T00:02:09;3.92;;;3.22;;
51174;SDS011;37240;50.104;20.010;2023-04-03T00:07:10;4.72;;;3.50;;
51174;SDS011;37240;50.104;20.010;2023-04-03T00:12:10;2.83;;;2.60;;
51174;SDS011;37240;50.104;20.010;2023-04-03T00:17:11;3.20;;;2.60;;
51174;SDS011;37240;50.104;20.010;2023-04-03T00:22:11;3.13;;;2.85;;
51174;SDS011;37240;50.104;20.010;2023-04-03T00:27:12;4.20;;;3.22;;
51174;SDS011;37240;50.104;20.010;2023-04-03T00:32:12;4.07;;;3.22;;
51174;SDS011;37240;50.104;20.010;2023-04-03T00:37:13;7.05;;;4.00;;
51174;SDS011;37240;50.104;20.010;2023-04-03T00:42:14;6.88;;;3.45;;
51174;SDS011;37240;50.104;20.010;2023-04-03T00:47:16;4.38;;;3.35;;
51174;SDS011;37240;50.104;20.010;2023-04-03T00:52:18;3.42;;;3.00;;
51174;SDS011;37240;50.104;20.010;2023-04-03T00:57:21;3.38;;;3.17;;
51174;SDS011;37240;50.104;20.010;2023-04-03T01:02:23;3.42;;;3.10;;
51174;SDS011;37240;50.104;20.010;2023-04-03T01:07:24;3.45;;;3.15;;
51174;SDS011;37240;50.104;20.010;2023-04-03T01:12:33;5.75;;;3.08;;
51174;SDS011;37240;50.104;20.010;2023-04-03T01:22:44;5.05;;;3.60;;
51174;SDS011;37240;50.104;20.010;2023-04-03T01:28:07;3.78;;;3.00;;
51174;SDS011;37240;50.104;20.010;2023-04-03T01:33:13;2.83;;;2.67;;
51174;SDS011;37240;50.104;20.010;2023-04-03T01:38:15;3.55;;;2.80;;
51174;SDS011;37240;50.104;20.010;2023-04-03T01:43:16;3.83;;;3.05;;
51174;SDS011;37240;50.104;20.010;2023-04-03T01:48:16;5.95;;;3.15;;
51174;SDS011;37240;50.104;20.010;2023-04-03T01:53:17;6.07;;;3.05;;
51174;SDS011;37240;50.104;20.010;2023-04-03T01:58:17;3.72;;;3.28;;
51174;SDS011;37240;50.104;20.010;2023-04-03T02:03:18;3.50;;;3.17;;
51174;SDS011;37240;50.104;20.010;2023-04-03T02:08:19;7.40;;;4.82;;
51174;SDS011;37240;50.104;20.010;2023-04-03T02:13:19;8.63;;;4.53;;
51174;SDS011;37240;50.104;20.010;2023-04-03T02:18:20;3.17;;;2.88;;
51174;SDS011;37240;50.104;20.010;2023-04-03T02:23:21;5.93;;;2.40;;
51174;SDS011;37240;50.104;20.010;2023-04-03T02:28:21;2.70;;;2.50;;
51174;SDS011;37240;50.104;20.010;2023-04-03T02:33:22;3.08;;;2.17;;
51174;SDS011;37240;50.104;20.010;2023-04-03T02:38:23;2.47;;;2.22;;
51174;SDS011;37240;50.104;20.010;2023-04-03T02:43:24;2.85;;;2.58;;
51174;SDS011;37240;50.104;20.010;2023-04-03T02:48:25;2.53;;;2.20;;
51174;SDS011;37240;50.104;20.010;2023-04-03T02:53:25;3.63;;;2.80;;
51174;SDS011;37240;50.104;20.010;2023-04-03T02:58:26;2.42;;;2.28;;
51174;SDS011;37240;50.104;20.010;2023-04-03T03:03:27;3.85;;;2.58;;
51174;SDS011;37240;50.104;20.010;2023-04-03T03:08:27;4.60;;;1.63;;
51174;SDS011;37240;50.104;20.010;2023-04-03T03:13:28;4.80;;;2.03;;
51174;SDS011;37240;50.104;20.010;2023-04-03T03:18:28;3.35;;;1.98;;
51174;SDS011;37240;50.104;20.010;2023-04-03T03:23:30;2.15;;;1.95;;
51174;SDS011;37240;50.104;20.010;2023-04-03T03:28:31;4.43;;;3.22;;
51174;SDS011;37240;50.104;20.010;2023-04-03T03:33:33;2.42;;;2.22;;
51174;SDS011;37240;50.104;20.010;2023-04-03T03:38:33;2.13;;;1.92;;
51174;SDS011;37240;50.104;20.010;2023-04-03T03:43:34;2.40;;;2.20;;
51174;SDS011;37240;50.104;20.010;2023-04-03T03:48:35;3.92;;;2.40;;
51174;SDS011;37240;50.104;20.010;2023-04-03T03:53:35;3.22;;;2.42;;
51174;SDS011;37240;50.104;20.010;2023-04-03T03:58:36;2.33;;;2.13;;
51174;SDS011;37240;50.104;20.010;2023-04-03T04:03:37;2.30;;;2.08;;
51174;SDS011;37240;50.104;20.010;2023-04-03T04:08:37;5.13;;;1.92;;
51174;SDS011;37240;50.104;20.010;2023-04-03T04:13:38;6.82;;;2.42;;
51174;SDS011;37240;50.104;20.010;2023-04-03T04:18:38;2.35;;;2.15;;
51174;SDS011;37240;50.104;20.010;2023-04-03T04:23:39;4.00;;;2.70;;
51174;SDS011;37240;50.104;20.010;2023-04-03T04:28:39;2.70;;;2.40;;
51174;SDS011;37240;50.104;20.010;2023-04-03T04:33:40;3.15;;;2.53;;
51174;SDS011;37240;50.104;20.010;2023-04-03T04:38:40;2.92;;;2.60;;
51174;SDS011;37240;50.104;20.010;2023-04-03T04:43:41;7.80;;;2.60;;
51174;SDS011;37240;50.104;20.010;2023-04-03T04:48:42;6.20;;;3.55;;
51174;SDS011;37240;50.104;20.010;2023-04-03T04:53:43;5.22;;;2.70;;
51174;SDS011;37240;50.104;20.010;2023-04-03T04:58:43;3.92;;;3.13;;
51174;SDS011;37240;50.104;20.010;2023-04-03T05:03:44;3.72;;;3.00;;
51174;SDS011;37240;50.104;20.010;2023-04-03T05:08:45;2.67;;;2.47;;
51174;SDS011;37240;50.104;20.010;2023-04-03T05:13:45;8.98;;;3.55;;
51174;SDS011;37240;50.104;20.010;2023-04-03T05:18:46;2.40;;;2.08;;
51174;SDS011;37240;50.104;20.010;2023-04-03T05:23:46;10.15;;;2.80;;
51174;SDS011;37240;50.104;20.010;2023-04-03T05:28:47;6.18;;;2.80;;
51174;SDS011;37240;50.104;20.010;2023-04-03T05:33:48;5.88;;;2.97;;
51174;SDS011;37240;50.104;20.010;2023-04-03T05:38:49;2.95;;;2.60;;
51174;SDS011;37240;50.104;20.010;2023-04-03T05:43:50;4.15;;;2.70;;
51174;SDS011;37240;50.104;20.010;2023-04-03T05:48:50;7.90;;;3.95;;
51174;SDS011;37240;50.104;20.010;2023-04-03T05:54:11;11.75;;;3.58;;
51174;SDS011;37240;50.104;20.010;2023-04-03T05:59:16;5.93;;;2.80;;
51174;SDS011;37240;50.104;20.010;2023-04-03T06:04:17;7.00;;;3.42;;
51174;SDS011;37240;50.104;20.010;2023-04-03T06:09:19;9.00;;;3.08;;
51174;SDS011;37240;50.104;20.010;2023-04-03T06:14:21;4.93;;;2.83;;
51174;SDS011;37240;50.104;20.010;2023-04-03T06:19:22;9.90;;;3.60;;
51174;SDS011;37240;50.104;20.010;2023-04-03T06:24:23;4.30;;;2.95;;
51174;SDS011;37240;50.104;20.010;2023-04-03T06:29:23;5.70;;;2.53;;
51174;SDS011;37240;50.104;20.010;2023-04-03T06:34:24;3.70;;;2.65;;
51174;SDS011;37240;50.104;20.010;2023-04-03T06:39:24;10.45;;;3.22;;
51174;SDS011;37240;50.104;20.010;2023-04-03T06:44:25;6.50;;;2.40;;
51174;SDS011;37240;50.104;20.010;2023-04-03T06:49:25;15.23;;;2.70;;
51174;SDS011;37240;50.104;20.010;2023-04-03T06:54:26;3.45;;;2.67;;
51174;SDS011;37240;50.104;20.010;2023-04-03T06:59:27;12.60;;;3.58;;
51174;SDS011;37240;50.104;20.010;2023-04-03T07:04:27;5.80;;;2.90;;
51174;SDS011;37240;50.104;20.010;2023-04-03T07:09:28;19.15;;;5.28;;
51174;SDS011;37240;50.104;20.010;2023-04-03T07:14:28;15.48;;;6.30;;
51174;SDS011;37240;50.104;20.010;2023-04-03T07:19:29;14.85;;;2.92;;
51174;SDS011;37240;50.104;20.010;2023-04-03T07:24:29;10.52;;;2.90;;
51174;SDS011;37240;50.104;20.010;2023-04-03T07:29:30;14.48;;;4.55;;
51174;SDS011;37240;50.104;20.010;2023-04-03T07:34:31;10.73;;;3.20;;
51174;SDS011;37240;50.104;20.010;2023-04-03T07:39:32;8.93;;;2.25;;
51174;SDS011;37240;50.104;20.010;2023-04-03T07:44:33;5.53;;;2.42;;
51174;SDS011;37240;50.104;20.010;2023-04-03T07:49:33;6.32;;;2.25;;
51174;SDS011;37240;50.104;20.010;2023-04-03T07:54:34;2.60;;;2.08;;
51174;SDS011;37240;50.104;20.010;2023-04-03T07:59:34;6.00;;;2.60;;
51174;SDS011;37240;50.104;20.010;2023-04-03T08:04:35;6.32;;;3.17;;
51174;SDS011;37240;50.104;20.010;2023-04-03T08:09:36;20.58;;;6.68;;
51174;SDS011;37240;50.104;20.010;2023-04-03T08:14:36;3.97;;;2.80;;
51174;SDS011;37240;50.104;20.010;2023-04-03T08:19:37;30.08;;;15.00;;
51174;SDS011;37240;50.104;20.010;2023-04-03T08:24:39;5.22;;;3.75;;
51174;SDS011;37240;50.104;20.010;2023-04-03T08:29:39;4.55;;;2.63;;
51174;SDS011;37240;50.104;20.010;2023-04-03T08:34:40;6.13;;;1.80;;
51174;SDS011;37240;50.104;20.010;2023-04-03T08:39:41;5.70;;;2.47;;
51174;SDS011;37240;50.104;20.010;2023-04-03T08:44:52;5.93;;;1.88;;
51174;SDS011;37240;50.104;20.010;2023-04-03T08:50:16;5.45;;;2.33;;
51174;SDS011;37240;50.104;20.010;2023-04-03T08:55:25;5.40;;;2.47;;
51174;SDS011;37240;50.104;20.010;2023-04-03T09:00:51;16.33;;;3.00;;
51174;SDS011;37240;50.104;20.010;2023-04-03T09:05:55;7.53;;;2.90;;
51174;SDS011;37240;50.104;20.010;2023-04-03T09:22:02;5.60;;;3.95;;
51174;SDS011;37240;50.104;20.010;2023-04-03T09:27:13;16.65;;;2.88;;
51174;SDS011;37240;50.104;20.010;2023-04-03T09:32:33;7.07;;;2.30;;
51174;SDS011;37240;50.104;20.010;2023-04-03T09:37:36;5.22;;;2.75;;
51174;SDS011;37240;50.104;20.010;2023-04-03T09:42:41;4.25;;;2.67;;
51174;SDS011;37240;50.104;20.010;2023-04-03T09:47:43;5.68;;;2.85;;
51174;SDS011;37240;50.104;20.010;2023-04-03T09:52:44;10.60;;;2.90;;
51174;SDS011;37240;50.104;20.010;2023-04-03T09:57:47;45.75;;;17.42;;
51174;SDS011;37240;50.104;20.010;2023-04-03T10:02:50;22.45;;;5.95;;
51174;SDS011;37240;50.104;20.010;2023-04-03T10:08:07;17.25;;;7.30;;
51174;SDS011;37240;50.104;20.010;2023-04-03T10:13:11;5.25;;;2.65;;
51174;SDS011;37240;50.104;20.010;2023-04-03T10:18:39;5.03;;;2.97;;
51174;SDS011;37240;50.104;20.010;2023-04-03T10:23:54;7.32;;;2.70;;
51174;SDS011;37240;50.104;20.010;2023-04-03T10:34:33;5.10;;;2.55;;
51174;SDS011;37240;50.104;20.010;2023-04-03T10:39:41;11.52;;;5.22;;
51174;SDS011;37240;50.104;20.010;2023-04-03T11:05:57;6.30;;;2.70;;
51174;SDS011;37240;50.104;20.010;2023-04-03T11:16:38;10.83;;;3.53;;
51174;SDS011;37240;50.104;20.010;2023-04-03T11:21:43;8.18;;;2.88;;
51174;SDS011;37240;50.104;20.010;2023-04-03T11:26:48;35.37;;;14.63;;
51174;SDS011;37240;50.104;20.010;2023-04-03T11:37:13;8.70;;;2.58;;
51174;SDS011;37240;50.104;20.010;2023-04-03T11:47:51;8.27;;;3.42;;
51174;SDS011;37240;50.104;20.010;2023-04-03T11:52:55;12.40;;;3.05;;
51174;SDS011;37240;50.104;20.010;2023-04-03T12:02:58;3.30;;;2.00;;
51174;SDS011;37240;50.104;20.010;2023-04-03T12:08:15;9.00;;;2.75;;
51174;SDS011;37240;50.104;20.010;2023-04-03T12:13:23;44.80;;;19.65;;
51174;SDS011;37240;50.104;20.010;2023-04-03T12:18:41;8.27;;;3.97;;
51174;SDS011;37240;50.104;20.010;2023-04-03T12:24:13;6.88;;;2.28;;
51174;SDS011;37240;50.104;20.010;2023-04-03T12:39:52;8.43;;;3.37;;
51174;SDS011;37240;50.104;20.010;2023-04-03T12:55:40;5.70;;;2.70;;
51174;SDS011;37240;50.104;20.010;2023-04-03T13:00:40;12.63;;;2.83;;
51174;SDS011;37240;50.104;20.010;2023-04-03T13:05:41;5.28;;;2.35;;
51174;SDS011;37240;50.104;20.010;2023-04-03T13:10:55;6.38;;;2.60;;
51174;SDS011;37240;50.104;20.010;2023-04-03T13:16:09;18.42;;;7.57;;
51174;SDS011;37240;50.104;20.010;2023-04-03T13:21:15;9.10;;;3.65;;
51174;SDS011;37240;50.104;20.010;2023-04-03T13:26:20;19.10;;;2.63;;
51174;SDS011;37240;50.104;20.010;2023-04-03T13:31:23;5.93;;;2.53;;
51174;SDS011;37240;50.104;20.010;2023-04-03T13:36:30;4.68;;;2.30;;
51174;SDS011;37240;50.104;20.010;2023-04-03T13:41:36;8.13;;;3.47;;
51174;SDS011;37240;50.104;20.010;2023-04-03T13:46:38;8.80;;;2.85;;
51174;SDS011;37240;50.104;20.010;2023-04-03T13:51:39;9.80;;;3.03;;
51174;SDS011;37240;50.104;20.010;2023-04-03T13:56:40;5.70;;;2.47;;
51174;SDS011;37240;50.104;20.010;2023-04-03T14:01:46;10.25;;;2.88;;
51174;SDS011;37240;50.104;20.010;2023-04-03T14:06:50;6.32;;;2.80;;
51174;SDS011;37240;50.104;20.010;2023-04-03T14:11:52;10.10;;;2.72;;
51174;SDS011;37240;50.104;20.010;2023-04-03T14:16:58;8.15;;;2.53;;
51174;SDS011;37240;50.104;20.010;2023-04-03T14:22:06;5.82;;;2.95;;
51174;SDS011;37240;50.104;20.010;2023-04-03T14:27:38;12.77;;;3.15;;
51174;SDS011;37240;50.104;20.010;2023-04-03T14:32:41;7.65;;;3.15;;
51174;SDS011;37240;50.104;20.010;2023-04-03T14:37:41;17.85;;;3.65;;
51174;SDS011;37240;50.104;20.010;2023-04-03T14:42:43;29.40;;;13.35;;
51174;SDS011;37240;50.104;20.010;2023-04-03T14:47:45;11.20;;;4.40;;
51174;SDS011;37240;50.104;20.010;2023-04-03T14:52:49;5.95;;;3.25;;
51174;SDS011;37240;50.104;20.010;2023-04-03T14:57:51;9.10;;;3.58;;
51174;SDS011;37240;50.104;20.010;2023-04-03T15:02:52;7.47;;;3.83;;
51174;SDS011;37240;50.104;20.010;2023-04-03T15:07:54;20.13;;;3.47;;
51174;SDS011;37240;50.104;20.010;2023-04-03T15:12:55;6.32;;;2.63;;
51174;SDS011;37240;50.104;20.010;2023-04-03T15:17:57;30.65;;;11.90;;
51174;SDS011;37240;50.104;20.010;2023-04-03T15:22:57;22.80;;;9.20;;
51174;SDS011;37240;50.104;20.010;2023-04-03T15:27:59;5.60;;;2.83;;
51174;SDS011;37240;50.104;20.010;2023-04-03T15:32:59;11.30;;;4.25;;
51174;SDS011;37240;50.104;20.010;2023-04-03T15:38:00;11.07;;;4.38;;
51174;SDS011;37240;50.104;20.010;2023-04-03T15:43:01;20.45;;;9.27;;
51174;SDS011;37240;50.104;20.010;2023-04-03T15:48:02;15.57;;;4.22;;
51174;SDS011;37240;50.104;20.010;2023-04-03T15:53:03;6.35;;;3.00;;
51174;SDS011;37240;50.104;20.010;2023-04-03T15:58:04;6.68;;;3.10;;
51174;SDS011;37240;50.104;20.010;2023-04-03T16:03:07;7.20;;;2.85;;
51174;SDS011;37240;50.104;20.010;2023-04-03T16:08:10;30.07;;;12.50;;
51174;SDS011;37240;50.104;20.010;2023-04-03T16:13:12;18.80;;;8.35;;
51174;SDS011;37240;50.104;20.010;2023-04-03T16:18:13;7.07;;;3.42;;
51174;SDS011;37240;50.104;20.010;2023-04-03T16:23:14;7.13;;;4.07;;
51174;SDS011;37240;50.104;20.010;2023-04-03T16:28:15;14.57;;;5.55;;
51174;SDS011;37240;50.104;20.010;2023-04-03T16:33:17;9.63;;;2.85;;
51174;SDS011;37240;50.104;20.010;2023-04-03T16:38:18;7.93;;;3.28;;
51174;SDS011;37240;50.104;20.010;2023-04-03T16:43:19;30.33;;;13.23;;
51174;SDS011;37240;50.104;20.010;2023-04-03T16:48:20;11.20;;;4.13;;
51174;SDS011;37240;50.104;20.010;2023-04-03T16:53:21;5.45;;;3.30;;
51174;SDS011;37240;50.104;20.010;2023-04-03T16:58:23;6.95;;;3.65;;
51174;SDS011;37240;50.104;20.010;2023-04-03T17:03:24;8.75;;;3.72;;
51174;SDS011;37240;50.104;20.010;2023-04-03T17:08:25;8.02;;;3.85;;
51174;SDS011;37240;50.104;20.010;2023-04-03T17:13:25;14.38;;;5.93;;
51174;SDS011;37240;50.104;20.010;2023-04-03T17:18:26;12.82;;;4.15;;
51174;SDS011;37240;50.104;20.010;2023-04-03T17:23:27;55.17;;;21.75;;
51174;SDS011;37240;50.104;20.010;2023-04-03T17:28:28;53.70;;;20.27;;
51174;SDS011;37240;50.104;20.010;2023-04-03T17:33:29;23.08;;;8.65;;
51174;SDS011;37240;50.104;20.010;2023-04-03T17:38:30;17.13;;;6.47;;
51174;SDS011;37240;50.104;20.010;2023-04-03T17:43:32;13.93;;;6.15;;
51174;SDS011;37240;50.104;20.010;2023-04-03T17:48:33;20.40;;;8.07;;
51174;SDS011;37240;50.104;20.010;2023-04-03T17:53:36;20.83;;;7.13;;
51174;SDS011;37240;50.104;20.010;2023-04-03T17:58:36;17.90;;;6.57;;
51174;SDS011;37240;50.104;20.010;2023-04-03T18:03:37;23.08;;;8.07;;
51174;SDS011;37240;50.104;20.010;2023-04-03T18:08:39;29.98;;;9.13;;
51174;SDS011;37240;50.104;20.010;2023-04-03T18:13:42;23.52;;;7.35;;
51174;SDS011;37240;50.104;20.010;2023-04-03T18:18:44;25.27;;;9.35;;
51174;SDS011;37240;50.104;20.010;2023-04-03T18:23:46;21.52;;;8.10;;
51174;SDS011;37240;50.104;20.010;2023-04-03T18:28:52;30.47;;;9.60;;
51174;SDS011;37240;50.104;20.010;2023-04-03T18:33:56;24.90;;;7.97;;
51174;SDS011;37240;50.104;20.010;2023-04-03T18:38:57;24.30;;;7.82;;
51174;SDS011;37240;50.104;20.010;2023-04-03T18:43:58;21.58;;;8.45;;
51174;SDS011;37240;50.104;20.010;2023-04-03T18:49:02;22.52;;;7.88;;
51174;SDS011;37240;50.104;20.010;2023-04-03T18:54:03;17.30;;;7.40;;
51174;SDS011;37240;50.104;20.010;2023-04-03T18:59:04;21.60;;;8.63;;
51174;SDS011;37240;50.104;20.010;2023-04-03T19:04:06;21.13;;;8.00;;
51174;SDS011;37240;50.104;20.010;2023-04-03T19:09:07;22.73;;;8.45;;
51174;SDS011;37240;50.104;20.010;2023-04-03T19:14:07;24.17;;;7.72;;
51174;SDS011;37240;50.104;20.010;2023-04-03T19:19:08;23.65;;;8.88;;
51174;SDS011;37240;50.104;20.010;2023-04-03T19:24:09;18.35;;;7.43;;
51174;SDS011;37240;50.104;20.010;2023-04-03T19:29:11;26.30;;;8.27;;
51174;SDS011;37240;50.104;20.010;2023-04-03T19:34:12;19.80;;;7.63;;
51174;SDS011;37240;50.104;20.010;2023-04-03T19:39:13;25.52;;;8.55;;
51174;SDS011;37240;50.104;20.010;2023-04-03T19:44:17;23.85;;;7.90;;
51174;SDS011;37240;50.104;20.010;2023-04-03T19:49:18;20.73;;;7.57;;
51174;SDS011;37240;50.104;20.010;2023-04-03T19:54:19;20.00;;;8.00;;
51174;SDS011;37240;50.104;20.010;2023-04-03T19:59:21;28.77;;;8.43;;
51174;SDS011;37240;50.104;20.010;2023-04-03T20:04:21;22.20;;;8.55;;
51174;SDS011;37240;50.104;20.010;2023-04-03T20:09:22;20.42;;;8.57;;
51174;SDS011;37240;50.104;20.010;2023-04-03T20:14:22;26.80;;;9.63;;
51174;SDS011;37240;50.104;20.010;2023-04-03T20:19:23;21.73;;;7.78;;
51174;SDS011;37240;50.104;20.010;2023-04-03T20:24:24;24.83;;;10.10;;
51174;SDS011;37240;50.104;20.010;2023-04-03T20:29:25;26.20;;;10.13;;
51174;SDS011;37240;50.104;20.010;2023-04-03T20:34:25;22.95;;;8.88;;
51174;SDS011;37240;50.104;20.010;2023-04-03T20:39:26;26.13;;;9.15;;
51174;SDS011;37240;50.104;20.010;2023-04-03T20:44:27;24.38;;;8.90;;
51174;SDS011;37240;50.104;20.010;2023-04-03T20:49:27;21.67;;;8.35;;
51174;SDS011;37240;50.104;20.010;2023-04-03T20:54:28;25.20;;;9.45;;
51174;SDS011;37240;50.104;20.010;2023-04-03T20:59:28;24.75;;;8.48;;
51174;SDS011;37240;50.104;20.010;2023-04-03T21:04:32;27.92;;;9.05;;
51174;SDS011;37240;50.104;20.010;2023-04-03T21:20:47;30.80;;;9.70;;
51174;SDS011;37240;50.104;20.010;2023-04-03T21:25:47;28.90;;;9.15;;
51174;SDS011;37240;50.104;20.010;2023-04-03T21:30:48;32.45;;;8.75;;
51174;SDS011;37240;50.104;20.010;2023-04-03T21:35:48;27.08;;;9.30;;
51174;SDS011;37240;50.104;20.010;2023-04-03T21:40:49;24.65;;;7.78;;
51174;SDS011;37240;50.104;20.010;2023-04-03T21:45:53;28.27;;;9.35;;
51174;SDS011;37240;50.104;20.010;2023-04-03T21:51:00;17.15;;;6.95;;
51174;SDS011;37240;50.104;20.010;2023-04-03T21:56:01;21.83;;;7.60;;
51174;SDS011;37240;50.104;20.010;2023-04-03T22:01:09;22.52;;;8.32;;
51174;SDS011;37240;50.104;20.010;2023-04-03T22:06:13;25.00;;;7.95;;
51174;SDS011;37240;50.104;20.010;2023-04-03T22:11:15;23.40;;;7.25;;
51174;SDS011;37240;50.104;20.010;2023-04-03T22:16:15;22.13;;;7.22;;
51174;SDS011;37240;50.104;20.010;2023-04-03T22:21:16;22.15;;;7.55;;
51174;SDS011;37240;50.104;20.010;2023-04-03T22:26:17;19.83;;;7.40;;
51174;SDS011;37240;50.104;20.010;2023-04-03T22:31:18;22.25;;;8.10;;
51174;SDS011;37240;50.104;20.010;2023-04-03T22:36:18;29.58;;;9.18;;
51174;SDS011;37240;50.104;20.010;2023-04-03T22:41:19;28.63;;;7.90;;
51174;SDS011;37240;50.104;20.010;2023-04-03T22:46:20;25.83;;;8.52;;
51174;SDS011;37240;50.104;20.010;2023-04-03T22:51:20;30.05;;;8.32;;
51174;SDS011;37240;50.104;20.010;2023-04-03T22:56:21;28.13;;;9.13;;
51174;SDS011;37240;50.104;20.010;2023-04-03T23:01:21;18.13;;;6.93;;
51174;SDS011;37240;50.104;20.010;2023-04-03T23:06:22;23.38;;;8.13;;
51174;SDS011;37240;50.104;20.010;2023-04-03T23:11:22;21.55;;;7.75;;
51174;SDS011;37240;50.104;20.010;2023-04-03T23:16:23;27.23;;;7.07;;
51174;SDS011;37240;50.104;20.010;2023-04-03T23:21:24;20.17;;;7.55;;
51174;SDS011;37240;50.104;20.010;2023-04-03T23:26:25;20.48;;;7.03;;
51174;SDS011;37240;50.104;20.010;2023-04-03T23:31:26;18.10;;;6.85;;
51174;SDS011;37240;50.104;20.010;2023-04-03T23:36:26;19.25;;;6.60;;
51174;SDS011;37240;50.104;20.010;2023-04-03T23:41:27;16.10;;;5.70;;
51174;SDS011;37240;50.104;20.010;2023-04-03T23:46:27;18.38;;;6.13;;
51174;SDS011;37240;50.104;20.010;2023-04-03T23:51:28;24.92;;;6.53;;
51174;SDS011;37240;50.104;20.010;2023-04-03T23:56:28;14.68;;;6.22;;
